Time;durP1;ratioP1;P1;durP2;ratioP2;P2;SDS_P1;SDS_P2;PMS_P1;PMS_P2;Temp;Humidity;BMP_temperature;BMP_pressure;BME280_temperature;BME280_humidity;BME280_pressure;Samples;Min_cycle;Max_cycle;Signal;HPM_P1;HPM_P2
2021/11/01 00:06:43;;;;;;;1999.90;999.90;;;;;;;11.66;66.32;99692.69;15658645;28;20501;-56
2021/11/01 00:14:17;;;;;;;1999.90;999.90;;;;;;;11.57;66.66;99690.13;15676873;28;20468;-55
2021/11/01 00:21:50;;;;;;;1999.90;999.90;;;;;;;11.60;66.64;99683.00;15675914;28;20060;-57
2021/11/01 00:29:24;;;;;;;1999.90;999.90;;;;;;;11.57;67.08;99673.38;15676697;28;20048;-60
2021/11/01 00:36:56;;;;;;;1999.90;999.90;;;;;;;11.61;67.20;99670.66;15657716;28;20041;-55
2021/11/01 00:44:30;;;;;;;1999.90;999.90;;;;;;;11.48;67.42;99667.19;15657544;28;20102;-55
2021/11/01 00:52:03;;;;;;;1999.90;999.90;;;;;;;11.34;67.82;99663.22;15655997;28;20044;-57
2021/11/01 00:59:37;;;;;;;1999.90;999.90;;;;;;;11.33;68.01;99654.03;15673648;28;20041;-58
2021/11/01 01:07:10;;;;;;;1999.90;999.90;;;;;;;10.97;69.46;99635.66;15674105;28;20520;-60
2021/11/01 01:14:46;;;;;;;1999.90;999.90;;;;;;;11.46;67.86;99629.59;15673800;28;20041;-59
2021/11/01 01:30:14;;;;;;;1999.90;999.90;;;;;;;11.41;68.24;99616.72;15650778;28;20041;-56
2021/11/01 01:37:52;;;;;;;1999.90;999.90;;;;;;;11.47;67.90;99611.69;15672175;28;20522;-55
2021/11/01 01:45:26;;;;;;;1999.90;999.90;;;;;;;11.26;68.63;99606.44;15673574;28;20041;-55
2021/11/01 01:52:59;;;;;;;1999.90;999.90;;;;;;;11.43;67.70;99592.03;15678211;28;20044;-56
2021/11/01 02:00:48;;;;;;;1999.90;999.90;;;;;;;11.42;68.03;99584.81;15686163;28;20064;-57
2021/11/01 02:08:25;;;;;;;1999.90;999.90;;;;;;;11.68;67.32;99584.19;15667525;28;20075;-64
2021/11/01 02:16:00;;;;;;;1999.90;999.90;;;;;;;11.61;67.29;99567.28;15705020;22;20500;-59
2021/11/01 02:23:49;;;;;;;1999.90;999.90;;;;;;;11.47;68.19;99559.41;15723110;28;20040;-61
2021/11/01 02:31:26;;;;;;;1999.90;999.90;;;;;;;11.55;67.67;99549.97;15700423;28;20170;-59
2021/11/01 02:39:00;;;;;;;1999.90;999.90;;;;;;;11.32;68.43;99553.88;15697004;28;20047;-61
2021/11/01 02:46:34;;;;;;;1999.90;999.90;;;;;;;11.46;67.72;99538.25;15695676;28;20111;-61
2021/11/01 02:54:09;;;;;;;1999.90;999.90;;;;;;;11.28;68.43;99540.66;15708647;28;20053;-61
2021/11/01 03:01:43;;;;;;;1999.90;999.90;;;;;;;10.64;70.32;99530.03;15699061;28;20052;-61
2021/11/01 03:09:15;;;;;;;1999.90;999.90;;;;;;;10.70;70.50;99518.22;15704172;28;20049;-59
2021/11/01 03:16:50;;;;;;;1999.90;999.90;;;;;;;10.86;70.45;99523.78;15715340;28;20124;-61
2021/11/01 03:24:23;;;;;;;1999.90;999.90;;;;;;;10.97;69.70;99532.38;15707407;28;20047;-61
2021/11/01 03:31:58;;;;;;;1999.90;999.90;;;;;;;11.24;68.71;99533.34;15713867;28;20041;-61
2021/11/01 03:39:32;;;;;;;1999.90;999.90;;;;;;;11.32;68.03;99523.97;15738578;28;20044;-61
2021/11/01 03:47:06;;;;;;;1999.90;999.90;;;;;;;10.94;69.92;99519.97;15691166;28;20051;-61
2021/11/01 03:54:40;;;;;;;1999.90;999.90;;;;;;;11.21;68.44;99532.13;15721612;28;20060;-59
2021/11/01 04:02:16;;;;;;;1999.90;999.90;;;;;;;11.33;68.12;99539.53;15674157;28;20102;-61
2021/11/01 04:09:49;;;;;;;1999.90;999.90;;;;;;;11.11;68.61;99540.25;15709807;28;20059;-61
2021/11/01 04:17:25;;;;;;;1999.90;999.90;;;;;;;11.27;68.28;99550.22;15695421;28;20407;-60
2021/11/01 04:24:57;;;;;;;1999.90;999.90;;;;;;;10.84;69.50;99539.25;15703694;28;20056;-60
2021/11/01 04:32:35;;;;;;;1999.90;999.90;;;;;;;10.89;69.49;99541.75;15684932;28;20044;-61
2021/11/01 04:40:27;;;;;;;1999.90;999.90;;;;;;;11.03;68.99;99550.44;15676040;28;20084;-59
2021/11/01 04:55:51;;;;;;;1999.90;999.90;;;;;;;10.80;69.21;99557.88;15686599;28;20041;-61
2021/11/01 05:03:34;;;;;;;1999.90;999.90;;;;;;;11.27;67.73;99580.94;15708406;28;20044;-61
2021/11/01 05:11:14;;;;;;;1999.90;999.90;;;;;;;11.35;68.74;99573.50;15696451;28;20051;-61
2021/11/01 05:18:59;;;;;;;1999.90;999.90;;;;;;;11.56;67.68;99571.16;15705411;28;20132;-61
2021/11/01 05:26:49;;;;;;;1999.90;999.90;;;;;;;11.65;67.40;99572.94;15711300;28;20528;-59
2021/11/01 05:34:24;;;;;;;1999.90;999.90;;;;;;;11.56;67.90;99573.94;15712284;28;20067;-61
2021/11/01 05:41:56;;;;;;;1999.90;999.90;;;;;;;11.57;67.67;99583.97;15705688;28;20424;-61
2021/11/01 05:49:30;;;;;;;1999.90;999.90;;;;;;;11.69;67.84;99588.59;15711417;28;20123;-61
2021/11/01 05:57:10;;;;;;;1999.90;999.90;;;;;;;11.82;67.66;99603.25;15695330;28;20040;-61
2021/11/01 06:20:22;;;;;;;1999.90;999.90;;;;;;;12.16;66.90;99623.09;15681215;28;20041;-59
2021/11/01 06:27:55;;;;;;;1999.90;999.90;;;;;;;12.26;66.33;99628.06;15722745;28;20048;-60
2021/11/01 06:43:22;;;;;;;1999.90;999.90;;;;;;;12.45;65.71;99635.63;15719455;28;20044;-60
2021/11/01 06:51:10;;;;;;;1999.90;999.90;;;;;;;12.88;64.98;99648.38;15720466;28;20041;-61
2021/11/01 06:58:49;;;;;;;1999.90;999.90;;;;;;;12.67;65.33;99669.22;15679667;28;20153;-60
2021/11/01 07:14:28;;;;;;;1999.90;999.90;;;;;;;12.85;64.99;99685.53;15661372;28;20052;-60
2021/11/01 07:30:22;;;;;;;1999.90;999.90;;;;;;;13.09;64.72;99723.53;15658845;28;20462;-60
2021/11/01 08:41:40;;;;;;;1999.90;999.90;;;;;;;14.05;63.03;99806.38;15674712;28;20049;-60
2021/11/01 08:49:31;;;;;;;1999.90;999.90;;;;;;;14.31;63.51;99820.38;15672583;28;20506;-59
2021/11/01 09:20:59;;;;;;;1999.90;999.90;;;;;;;14.55;63.28;99857.63;15638065;28;20049;-61
2021/11/01 09:28:35;;;;;;;1999.90;999.90;;;;;;;14.66;62.36;99845.34;15654936;28;20075;-61
2021/11/01 09:36:18;;;;;;;1999.90;999.90;;;;;;;14.91;61.68;99862.50;15653943;28;20385;-61
2021/11/01 09:43:53;;;;;;;1999.90;999.90;;;;;;;14.94;62.38;99849.69;15671270;28;20041;-60
2021/11/01 09:51:26;;;;;;;1999.90;999.90;;;;;;;14.93;61.94;99853.69;15653779;28;20045;-59
2021/11/01 09:59:12;;;;;;;1999.90;999.90;;;;;;;15.13;61.44;99840.28;15653687;28;20513;-60
2021/11/01 10:06:54;;;;;;;1999.90;999.90;;;;;;;15.27;62.50;99837.59;15669378;28;20041;-60
2021/11/01 10:14:29;;;;;;;1999.90;999.90;;;;;;;15.26;64.92;99834.00;15643122;28;20103;-61
2021/11/01 10:22:06;;;;;;;1999.90;999.90;;;;;;;15.10;65.34;99844.63;15664256;28;20068;-61
2021/11/01 10:29:56;;;;;;;1999.90;999.90;;;;;;;15.15;65.89;99840.69;15663577;28;20076;-61
2021/11/01 10:37:30;;;;;;;1999.90;999.90;;;;;;;15.28;65.43;99851.28;15681045;28;20517;-61
2021/11/01 10:45:10;;;;;;;;;;;;;;;15.62;65.42;99856.84;15680760;28;20578;-61
2021/11/01 11:32:50;;;;;;;1999.90;999.90;;;;;;;15.14;68.76;99878.41;15638297;28;20068;-61
2021/11/01 11:40:57;;;;;;;1999.90;999.90;;;;;;;15.04;68.85;99879.09;15677971;28;20049;-63
2021/11/01 11:48:36;;;;;;;1999.90;999.90;;;;;;;15.22;69.53;99864.06;15658628;28;20092;-61
2021/11/01 11:56:10;;;;;;;1999.90;999.90;;;;;;;15.02;69.98;99857.00;15675886;28;20095;-61
2021/11/01 12:03:44;;;;;;;1999.90;999.90;;;;;;;15.19;70.79;99849.97;15675016;28;20098;-61
2021/11/01 12:11:31;;;;;;;1999.90;999.90;;;;;;;15.04;71.19;99839.78;15640659;28;20064;-61
2021/11/01 12:19:07;;;;;;;1999.90;999.90;;;;;;;14.85;71.84;99837.94;15674870;28;20049;-60
2021/11/01 12:26:43;;;;;;;1999.90;999.90;;;;;;;14.71;72.51;99845.00;15656222;28;20109;-61
2021/11/01 12:34:20;;;;;;;1999.90;999.90;;;;;;;14.53;72.82;99840.34;15673109;28;20045;-61
2021/11/01 12:42:12;;;;;;;1999.90;999.90;;;;;;;14.92;72.12;99832.41;15654886;28;20432;-60
2021/11/01 12:57:42;;;;;;;1999.90;999.90;;;;;;;14.64;73.58;99842.09;15637096;28;20049;-61
2021/11/01 13:05:20;;;;;;;1999.90;999.90;;;;;;;14.55;73.20;99855.63;15671403;28;20496;-61
2021/11/01 13:13:25;;;;;;;1999.90;999.90;;;;;;;14.70;71.53;99857.44;15637806;28;20045;-60
2021/11/01 13:21:09;;;;;;;1999.90;999.90;;;;;;;14.44;71.23;99865.84;15671500;28;20055;-60
2021/11/01 13:36:28;;;;;;;1999.90;999.90;;;;;;;14.35;71.47;99852.09;15672137;28;20139;-61
2021/11/01 13:44:09;;;;;;;1999.90;999.90;;;;;;;14.44;70.80;99846.22;15671835;28;20403;-61
2021/11/01 13:51:44;;;;;;;1999.90;999.90;;;;;;;13.98;71.16;99843.56;15688529;28;20136;-61
2021/11/01 13:59:32;;;;;;;1999.90;999.90;;;;;;;14.13;71.56;99836.97;15667914;28;20037;-59
2021/11/01 14:15:05;;;;;;;1999.90;999.90;;;;;;;13.67;73.69;99839.03;15697484;28;20402;-60
2021/11/01 15:10:12;;;;;;;1999.90;999.90;;;;;;;13.70;74.08;99863.50;15640729;28;20045;-61
2021/11/01 15:17:54;;;;;;;1999.90;999.90;;;;;;;13.48;74.50;99867.94;15646469;28;20136;-62
2021/11/01 16:20:47;;;;;;;1999.90;999.90;;;;;;;13.13;77.37;99876.47;15653239;28;20040;-59
2021/11/01 16:28:20;;;;;;;1999.90;999.90;;;;;;;12.99;78.07;99881.78;15661765;28;20047;-62
2021/11/01 16:35:57;;;;;;;1999.90;999.90;;;;;;;13.05;78.26;99873.91;15660876;28;20049;-61
2021/11/01 16:43:31;;;;;;;1999.90;999.90;;;;;;;13.06;77.75;99872.72;15678958;28;20045;-61
2021/11/01 16:51:05;;;;;;;1999.90;999.90;;;;;;;13.16;76.32;99866.50;15678324;28;20557;-62
2021/11/01 16:58:44;;;;;;;1999.90;999.90;;;;;;;13.01;75.92;99871.81;15677958;28;20044;-60
2021/11/01 17:06:27;;;;;;;1999.90;999.90;;;;;;;12.99;75.13;99870.56;15677956;28;20044;-60
2021/11/01 17:22:01;;;;;;;1999.90;999.90;;;;;;;12.77;74.06;99865.72;15659351;28;20453;-63
2021/11/01 17:30:07;;;;;;;1999.90;999.90;;;;;;;13.01;72.74;99891.41;15675973;28;20037;-61
2021/11/01 17:37:54;;;;;;;1999.90;999.90;;;;;;;12.86;72.90;99881.13;15658801;28;20037;-60
2021/11/01 18:40:41;;;;;;;1999.90;999.90;;;;;;;12.70;72.89;99875.59;15686189;28;20389;-63
2021/11/01 18:56:09;;;;;;;1999.90;999.90;;;;;;;12.51;73.46;99894.38;15650475;28;20052;-60
2021/11/01 19:03:48;;;;;;;1999.90;999.90;;;;;;;12.46;73.46;99903.03;15622497;28;20756;-62
2021/11/01 20:06:47;;;;;;;1999.90;999.90;;;;;;;12.46;73.95;99887.06;15610657;28;20053;-60
2021/11/01 20:14:36;;;;;;;1999.90;999.90;;;;;;;12.34;74.73;99873.19;15672622;28;20079;-62
2021/11/01 21:25:38;;;;;;;1999.90;999.90;;;;;;;12.08;76.83;99849.44;15668106;28;20438;-59
2021/11/01 21:33:15;;;;;;;1999.90;999.90;;;;;;;12.02;77.53;99859.28;15650281;28;20120;-59
2021/11/01 21:40:51;;;;;;;1999.90;999.90;;;;;;;12.11;77.56;99837.53;15676885;28;20041;-59
2021/11/01 21:48:24;;;;;;;1999.90;999.90;;;;;;;12.23;77.06;99850.59;15642290;28;20409;-61
2021/11/01 21:55:58;;;;;;;1999.90;999.90;;;;;;;12.02;78.41;99836.91;15673642;28;20049;-60
2021/11/01 22:42:52;;;;;;;1999.90;999.90;;;;;;;12.29;77.54;99809.13;15674200;28;20090;-59
2021/11/01 22:58:17;;;;;;;1999.90;999.90;;;;;;;12.14;78.64;99778.06;15688429;28;20044;-61
2021/11/01 23:06:12;;;;;;;1999.90;999.90;;;;;;;12.02;78.69;99786.59;15686261;28;20044;-60
2021/11/01 23:37:22;;;;;;;1999.90;999.90;;;;;;;11.56;81.37;99772.31;15684973;28;20155;-58
2021/11/01 23:44:56;;;;;;;1999.90;999.90;;;;;;;11.72;80.60;99763.09;15666937;28;20132;-61
2021/11/01 23:52:37;;;;;;;1999.90;999.90;;;;;;;11.72;80.59;99749.94;15665993;28;20049;-61
